GLD1774 MTPP-MKJP
Flight info
| Callsign | GLD1774 |
|---|---|
| Flight time | 2h 41m |
| Altitude | 8000 |
| Route | PAP MLY |
| Aircraft | C172/L-SDFGIRY/S |
Departure
| Time | 2026-04-24 18:55 |
|---|---|
| Airport | Toussaint Louverture International Airport (MTPP) |
Arrival
| Time | 2026-04-24 21:37 |
|---|---|
| Airport | Norman Manley International Airport (MKJP) |
| Time | Latitude | Longitude | Altitude | Speed | Heading |
|---|---|---|---|---|---|
| 2026-04-24 18:54 | 18.51864 | -72.59654 | 5664 ft | 101 kts | 251° |
| 2026-04-24 18:55 | 18.51564 | -72.61092 | 5910 ft | 100 kts | 253° |
| 2026-04-24 18:55 | 18.51415 | -72.61807 | 6027 ft | 99 kts | 253° |
| 2026-04-24 18:55 | 18.51268 | -72.62510 | 6150 ft | 97 kts | 253° |
| 2026-04-24 18:56 | 18.51123 | -72.63203 | 6272 ft | 96 kts | 253° |
| 2026-04-24 18:56 | 18.50980 | -72.63887 | 6388 ft | 95 kts | 253° |
| 2026-04-24 18:56 | 18.50840 | -72.64558 | 6499 ft | 93 kts | 253° |
| 2026-04-24 18:56 | 18.50703 | -72.65215 | 6611 ft | 91 kts | 253° |
| 2026-04-24 18:57 | 18.50570 | -72.65857 | 6719 ft | 88 kts | 253° |
| 2026-04-24 18:57 | 18.50439 | -72.66479 | 6827 ft | 86 kts | 253° |
| 2026-04-24 18:57 | 18.50311 | -72.67089 | 6913 ft | 87 kts | 253° |
| 2026-04-24 18:57 | 18.50180 | -72.67715 | 6999 ft | 88 kts | 253° |
| 2026-04-24 18:58 | 18.50046 | -72.68351 | 7076 ft | 90 kts | 253° |
| 2026-04-24 18:58 | 18.49911 | -72.68996 | 7148 ft | 90 kts | 253° |
| 2026-04-24 18:58 | 18.49775 | -72.69644 | 7222 ft | 91 kts | 254° |
| 2026-04-24 18:58 | 18.49636 | -72.70303 | 7293 ft | 92 kts | 254° |
| 2026-04-24 18:59 | 18.49497 | -72.70964 | 7367 ft | 93 kts | 253° |
| 2026-04-24 18:59 | 18.49358 | -72.71629 | 7443 ft | 93 kts | 253° |
| 2026-04-24 18:59 | 18.49220 | -72.72290 | 7515 ft | 94 kts | 253° |
| 2026-04-24 18:59 | 18.49077 | -72.72974 | 7590 ft | 95 kts | 253° |
| 2026-04-24 19:00 | 18.48935 | -72.73646 | 7664 ft | 95 kts | 253° |
| 2026-04-24 19:00 | 18.48792 | -72.74330 | 7737 ft | 96 kts | 253° |
| 2026-04-24 19:00 | 18.48649 | -72.75016 | 7810 ft | 96 kts | 253° |
| 2026-04-24 19:00 | 18.48504 | -72.75704 | 7884 ft | 96 kts | 253° |
| 2026-04-24 19:01 | 18.48358 | -72.76398 | 7935 ft | 100 kts | 254° |
| 2026-04-24 19:01 | 18.48202 | -72.77137 | 7944 ft | 107 kts | 254° |
| 2026-04-24 19:01 | 18.48037 | -72.77922 | 7940 ft | 112 kts | 255° |
| 2026-04-24 19:01 | 18.47866 | -72.78734 | 7944 ft | 114 kts | 255° |
| 2026-04-24 19:02 | 18.47750 | -72.79290 | 7940 ft | 116 kts | 254° |
| 2026-04-24 19:02 | 18.47580 | -72.80102 | 7941 ft | 114 kts | 254° |
| 2026-04-24 19:02 | 18.47411 | -72.80908 | 7936 ft | 111 kts | 254° |
| 2026-04-24 19:02 | 18.47246 | -72.81696 | 7929 ft | 110 kts | 255° |
| 2026-04-24 19:03 | 18.47082 | -72.82476 | 7936 ft | 108 kts | 255° |
| 2026-04-24 19:03 | 18.46920 | -72.83246 | 7933 ft | 107 kts | 255° |
| 2026-04-24 19:03 | 18.46759 | -72.84010 | 7933 ft | 107 kts | 254° |
| 2026-04-24 19:03 | 18.46599 | -72.84773 | 7927 ft | 107 kts | 254° |
| 2026-04-24 19:04 | 18.46438 | -72.85536 | 7928 ft | 106 kts | 254° |
| 2026-04-24 19:04 | 18.46279 | -72.86294 | 7927 ft | 106 kts | 254° |
| 2026-04-24 19:04 | 18.46119 | -72.87052 | 7929 ft | 106 kts | 254° |
| 2026-04-24 19:04 | 18.45961 | -72.87807 | 7929 ft | 105 kts | 254° |
| 2026-04-24 19:05 | 18.45802 | -72.88560 | 7937 ft | 105 kts | 254° |
| 2026-04-24 19:05 | 18.45643 | -72.89312 | 7935 ft | 105 kts | 254° |
| 2026-04-24 19:05 | 18.45486 | -72.90058 | 7936 ft | 104 kts | 254° |
| 2026-04-24 19:05 | 18.45329 | -72.90802 | 7936 ft | 104 kts | 254° |
| 2026-04-24 19:06 | 18.45172 | -72.91549 | 7931 ft | 105 kts | 253° |
| 2026-04-24 19:06 | 18.45017 | -72.92289 | 7929 ft | 102 kts | 254° |
| 2026-04-24 19:06 | 18.44868 | -72.92997 | 7934 ft | 99 kts | 253° |
| 2026-04-24 19:06 | 18.44718 | -72.93707 | 7937 ft | 100 kts | 254° |
| 2026-04-24 19:07 | 18.44566 | -72.94429 | 7935 ft | 102 kts | 254° |
| 2026-04-24 19:07 | 18.44409 | -72.95165 | 7951 ft | 104 kts | 252° |
| 2026-04-24 19:07 | 18.44251 | -72.95910 | 7962 ft | 104 kts | 252° |
| 2026-04-24 19:07 | 18.44092 | -72.96664 | 7955 ft | 107 kts | 253° |
| 2026-04-24 19:08 | 18.43931 | -72.97428 | 7960 ft | 107 kts | 252° |
| 2026-04-24 19:08 | 18.43772 | -72.98185 | 7960 ft | 105 kts | 252° |
| 2026-04-24 19:08 | 18.43614 | -72.98933 | 7960 ft | 105 kts | 252° |
| 2026-04-24 19:08 | 18.43457 | -72.99677 | 7958 ft | 106 kts | 252° |
| 2026-04-24 19:09 | 18.43296 | -73.00436 | 7960 ft | 107 kts | 254° |
| 2026-04-24 19:09 | 18.43134 | -73.01202 | 7958 ft | 107 kts | 253° |
| 2026-04-24 19:09 | 18.42972 | -73.01969 | 7955 ft | 107 kts | 253° |
| 2026-04-24 19:09 | 18.42812 | -73.02734 | 7955 ft | 107 kts | 253° |
| 2026-04-24 19:10 | 18.42650 | -73.03495 | 7957 ft | 107 kts | 253° |
| 2026-04-24 19:10 | 18.42487 | -73.04261 | 7960 ft | 108 kts | 253° |
| 2026-04-24 19:10 | 18.42326 | -73.05027 | 7957 ft | 107 kts | 253° |
| 2026-04-24 19:10 | 18.42167 | -73.05782 | 7958 ft | 105 kts | 253° |
| 2026-04-24 19:11 | 18.42008 | -73.06531 | 7958 ft | 105 kts | 253° |
| 2026-04-24 19:11 | 18.41849 | -73.07283 | 7957 ft | 106 kts | 253° |
| 2026-04-24 19:11 | 18.41688 | -73.08039 | 7951 ft | 106 kts | 254° |
| 2026-04-24 19:11 | 18.41529 | -73.08798 | 7952 ft | 106 kts | 253° |
| 2026-04-24 19:12 | 18.41369 | -73.09552 | 7956 ft | 106 kts | 253° |
| 2026-04-24 19:12 | 18.41209 | -73.10309 | 7953 ft | 106 kts | 253° |
| 2026-04-24 19:12 | 18.41051 | -73.11059 | 7946 ft | 105 kts | 254° |
| 2026-04-24 19:12 | 18.40891 | -73.11805 | 7952 ft | 104 kts | 253° |
| 2026-04-24 19:13 | 18.40786 | -73.12302 | 7954 ft | 105 kts | 253° |
| 2026-04-24 19:13 | 18.40570 | -73.13315 | 7949 ft | 105 kts | 254° |
| 2026-04-24 19:13 | 18.40413 | -73.14064 | 7950 ft | 105 kts | 253° |
| 2026-04-24 19:13 | 18.40253 | -73.14820 | 7950 ft | 106 kts | 254° |
| 2026-04-24 19:14 | 18.40091 | -73.15575 | 7948 ft | 106 kts | 253° |
| 2026-04-24 19:14 | 18.39931 | -73.16331 | 7951 ft | 106 kts | 254° |
| 2026-04-24 19:14 | 18.39770 | -73.17087 | 7950 ft | 105 kts | 253° |
| 2026-04-24 19:14 | 18.39611 | -73.17840 | 7953 ft | 106 kts | 252° |
| 2026-04-24 19:15 | 18.39451 | -73.18597 | 7960 ft | 106 kts | 252° |
| 2026-04-24 19:15 | 18.39289 | -73.19358 | 7962 ft | 107 kts | 252° |
| 2026-04-24 19:15 | 18.39125 | -73.20129 | 7955 ft | 109 kts | 252° |
| 2026-04-24 19:15 | 18.38959 | -73.20904 | 7957 ft | 109 kts | 253° |
| 2026-04-24 19:16 | 18.38632 | -73.22449 | 7956 ft | 108 kts | 252° |
| 2026-04-24 19:16 | 18.38468 | -73.23217 | 7974 ft | 108 kts | 252° |
| 2026-04-24 19:16 | 18.38301 | -73.24002 | 7948 ft | 111 kts | 254° |
| 2026-04-24 19:17 | 18.38135 | -73.24783 | 7969 ft | 109 kts | 254° |
| 2026-04-24 19:17 | 18.37966 | -73.25578 | 7962 ft | 116 kts | 253° |
| 2026-04-24 19:17 | 18.37786 | -73.26420 | 7940 ft | 118 kts | 254° |
| 2026-04-24 19:17 | 18.37613 | -73.27249 | 7946 ft | 113 kts | 254° |
| 2026-04-24 19:18 | 18.37446 | -73.28037 | 7944 ft | 107 kts | 252° |
| 2026-04-24 19:18 | 18.37285 | -73.28792 | 7948 ft | 104 kts | 252° |
| 2026-04-24 19:18 | 18.37127 | -73.29535 | 7945 ft | 103 kts | 254° |
| 2026-04-24 19:18 | 18.36971 | -73.30264 | 7958 ft | 102 kts | 252° |
| 2026-04-24 19:19 | 18.36813 | -73.31001 | 7959 ft | 104 kts | 253° |
| 2026-04-24 19:19 | 18.36653 | -73.31757 | 7955 ft | 107 kts | 253° |
| 2026-04-24 19:19 | 18.36489 | -73.32511 | 7944 ft | 104 kts | 253° |
| 2026-04-24 19:19 | 18.36338 | -73.33240 | 7939 ft | 100 kts | 254° |
| 2026-04-24 19:20 | 18.36185 | -73.33953 | 7970 ft | 101 kts | 252° |
| 2026-04-24 19:20 | 18.36031 | -73.34694 | 7951 ft | 105 kts | 255° |
| 2026-04-24 19:20 | 18.35854 | -73.35454 | 7956 ft | 113 kts | 253° |
| 2026-04-24 19:20 | 18.35687 | -73.36270 | 7947 ft | 114 kts | 255° |
| 2026-04-24 19:21 | 18.35515 | -73.37087 | 7953 ft | 116 kts | 253° |
| 2026-04-24 19:21 | 18.35343 | -73.37887 | 7945 ft | 108 kts | 254° |
| 2026-04-24 19:21 | 18.35186 | -73.38636 | 7950 ft | 102 kts | 253° |
| 2026-04-24 19:21 | 18.35033 | -73.39353 | 7938 ft | 97 kts | 252° |
| 2026-04-24 19:22 | 18.34940 | -73.39793 | 7957 ft | 87 kts | 253° |
| 2026-04-24 19:22 | 18.34754 | -73.40672 | 7989 ft | 94 kts | 255° |
| 2026-04-24 19:22 | 18.34593 | -73.41405 | 7951 ft | 108 kts | 253° |
| 2026-04-24 19:22 | 18.34435 | -73.42153 | 7951 ft | 103 kts | 253° |
| 2026-04-24 19:23 | 18.34279 | -73.42884 | 7955 ft | 102 kts | 252° |
| 2026-04-24 19:23 | 18.34126 | -73.43601 | 7946 ft | 99 kts | 253° |
| 2026-04-24 19:23 | 18.33970 | -73.44320 | 7954 ft | 103 kts | 254° |
| 2026-04-24 19:23 | 18.33811 | -73.45064 | 7950 ft | 103 kts | 255° |
| 2026-04-24 19:24 | 18.33661 | -73.45775 | 7952 ft | 95 kts | 253° |
| 2026-04-24 19:24 | 18.33510 | -73.46474 | 7953 ft | 100 kts | 253° |
| 2026-04-24 19:24 | 18.33354 | -73.47198 | 7966 ft | 103 kts | 254° |
| 2026-04-24 19:24 | 18.33194 | -73.47945 | 7955 ft | 105 kts | 253° |
| 2026-04-24 19:25 | 18.33031 | -73.48703 | 7954 ft | 110 kts | 254° |
| 2026-04-24 19:25 | 18.32865 | -73.49482 | 7959 ft | 109 kts | 253° |
| 2026-04-24 19:25 | 18.32697 | -73.50270 | 7966 ft | 113 kts | 255° |
| 2026-04-24 19:25 | 18.32520 | -73.51088 | 7942 ft | 115 kts | 254° |
| 2026-04-24 19:26 | 18.32350 | -73.51893 | 7954 ft | 112 kts | 254° |
| 2026-04-24 19:26 | 18.32178 | -73.52696 | 7952 ft | 112 kts | 254° |
| 2026-04-24 19:26 | 18.32008 | -73.53490 | 7948 ft | 110 kts | 254° |
| 2026-04-24 19:26 | 18.31841 | -73.54271 | 7945 ft | 109 kts | 254° |
| 2026-04-24 19:27 | 18.31675 | -73.55042 | 7948 ft | 108 kts | 254° |
| 2026-04-24 19:27 | 18.31511 | -73.55809 | 7949 ft | 106 kts | 254° |
| 2026-04-24 19:27 | 18.31346 | -73.56573 | 7948 ft | 108 kts | 254° |
| 2026-04-24 19:27 | 18.31183 | -73.57338 | 7947 ft | 106 kts | 253° |
| 2026-04-24 19:28 | 18.31020 | -73.58097 | 7948 ft | 107 kts | 254° |
| 2026-04-24 19:28 | 18.30856 | -73.58861 | 7950 ft | 107 kts | 254° |
| 2026-04-24 19:28 | 18.30693 | -73.59621 | 7948 ft | 105 kts | 254° |
| 2026-04-24 19:28 | 18.30532 | -73.60370 | 7945 ft | 105 kts | 255° |
| 2026-04-24 19:29 | 18.30214 | -73.61851 | 7942 ft | 104 kts | 253° |
| 2026-04-24 19:29 | 18.30055 | -73.62591 | 7947 ft | 104 kts | 253° |
| 2026-04-24 19:29 | 18.29895 | -73.63335 | 7945 ft | 104 kts | 253° |
| 2026-04-24 19:30 | 18.29737 | -73.64074 | 7946 ft | 104 kts | 253° |
| 2026-04-24 19:30 | 18.29580 | -73.64805 | 7947 ft | 104 kts | 253° |
| 2026-04-24 19:30 | 18.29418 | -73.65555 | 7956 ft | 104 kts | 254° |
| 2026-04-24 19:30 | 18.29260 | -73.66292 | 7956 ft | 103 kts | 254° |
| 2026-04-24 19:31 | 18.29104 | -73.67016 | 7956 ft | 103 kts | 254° |
| 2026-04-24 19:31 | 18.28947 | -73.67750 | 7957 ft | 103 kts | 254° |
| 2026-04-24 19:31 | 18.28859 | -73.68502 | 7957 ft | 103 kts | 260° |
| 2026-04-24 19:31 | 18.28781 | -73.69256 | 7960 ft | 104 kts | 260° |
| 2026-04-24 19:32 | 18.28702 | -73.70011 | 7954 ft | 104 kts | 260° |
| 2026-04-24 19:32 | 18.28621 | -73.70765 | 7960 ft | 103 kts | 260° |
| 2026-04-24 19:32 | 18.28541 | -73.71511 | 7959 ft | 102 kts | 259° |
| 2026-04-24 19:32 | 18.28462 | -73.72257 | 7961 ft | 103 kts | 260° |
| 2026-04-24 19:33 | 18.28380 | -73.73009 | 7960 ft | 103 kts | 259° |
| 2026-04-24 19:33 | 18.28299 | -73.73761 | 7957 ft | 104 kts | 260° |
| 2026-04-24 19:33 | 18.28217 | -73.74520 | 7966 ft | 105 kts | 260° |
| 2026-04-24 19:33 | 18.28135 | -73.75284 | 7965 ft | 105 kts | 260° |
| 2026-04-24 19:34 | 18.28052 | -73.76046 | 7958 ft | 105 kts | 260° |
| 2026-04-24 19:34 | 18.27970 | -73.76806 | 7960 ft | 104 kts | 260° |
| 2026-04-24 19:34 | 18.27888 | -73.77563 | 7960 ft | 104 kts | 260° |
| 2026-04-24 19:34 | 18.27806 | -73.78319 | 7956 ft | 104 kts | 260° |
| 2026-04-24 19:35 | 18.27725 | -73.79076 | 7956 ft | 104 kts | 260° |
| 2026-04-24 19:35 | 18.27642 | -73.79835 | 7957 ft | 104 kts | 260° |
| 2026-04-24 19:35 | 18.27560 | -73.80591 | 7956 ft | 104 kts | 260° |
| 2026-04-24 19:35 | 18.27479 | -73.81343 | 7950 ft | 104 kts | 260° |
| 2026-04-24 19:36 | 18.27397 | -73.82099 | 7959 ft | 104 kts | 260° |
| 2026-04-24 19:36 | 18.27314 | -73.82860 | 7959 ft | 105 kts | 260° |
| 2026-04-24 19:36 | 18.27232 | -73.83619 | 7954 ft | 104 kts | 260° |
| 2026-04-24 19:36 | 18.27150 | -73.84379 | 7959 ft | 105 kts | 260° |
| 2026-04-24 19:37 | 18.27067 | -73.85140 | 7959 ft | 105 kts | 260° |
| 2026-04-24 19:37 | 18.26985 | -73.85899 | 7959 ft | 104 kts | 260° |
| 2026-04-24 19:37 | 18.26902 | -73.86656 | 7953 ft | 104 kts | 260° |
| 2026-04-24 19:37 | 18.26820 | -73.87410 | 7957 ft | 104 kts | 259° |
| 2026-04-24 19:38 | 18.26739 | -73.88163 | 7956 ft | 104 kts | 260° |
| 2026-04-24 19:38 | 18.26657 | -73.88918 | 7955 ft | 104 kts | 260° |
| 2026-04-24 19:38 | 18.26574 | -73.89676 | 7958 ft | 104 kts | 259° |
| 2026-04-24 19:38 | 18.26492 | -73.90431 | 7955 ft | 104 kts | 259° |
| 2026-04-24 19:39 | 18.26412 | -73.91172 | 7952 ft | 101 kts | 259° |
| 2026-04-24 19:39 | 18.26331 | -73.91915 | 7956 ft | 103 kts | 259° |
| 2026-04-24 19:39 | 18.26249 | -73.92666 | 7943 ft | 103 kts | 260° |
| 2026-04-24 19:39 | 18.26167 | -73.93407 | 7949 ft | 105 kts | 260° |
| 2026-04-24 19:40 | 18.26084 | -73.94174 | 7944 ft | 106 kts | 259° |
| 2026-04-24 19:40 | 18.26001 | -73.94938 | 7948 ft | 105 kts | 259° |
| 2026-04-24 19:40 | 18.25917 | -73.95705 | 7945 ft | 105 kts | 260° |
| 2026-04-24 19:40 | 18.25834 | -73.96472 | 7947 ft | 106 kts | 259° |
| 2026-04-24 19:41 | 18.25749 | -73.97245 | 7948 ft | 107 kts | 260° |
| 2026-04-24 19:41 | 18.25664 | -73.98027 | 7936 ft | 105 kts | 259° |
| 2026-04-24 19:41 | 18.25587 | -73.98762 | 7930 ft | 100 kts | 260° |
| 2026-04-24 19:41 | 18.25502 | -73.99497 | 7933 ft | 102 kts | 260° |
| 2026-04-24 19:42 | 18.25421 | -74.00242 | 7935 ft | 103 kts | 260° |
| 2026-04-24 19:42 | 18.25339 | -74.00998 | 7943 ft | 105 kts | 259° |
| 2026-04-24 19:42 | 18.25257 | -74.01752 | 7940 ft | 104 kts | 259° |
| 2026-04-24 19:42 | 18.25174 | -74.02510 | 7943 ft | 106 kts | 260° |
| 2026-04-24 19:43 | 18.25088 | -74.03292 | 7946 ft | 108 kts | 260° |
| 2026-04-24 19:43 | 18.25001 | -74.04081 | 7945 ft | 108 kts | 260° |
| 2026-04-24 19:43 | 18.24916 | -74.04860 | 7941 ft | 107 kts | 260° |
| 2026-04-24 19:43 | 18.24831 | -74.05634 | 7938 ft | 106 kts | 260° |
| 2026-04-24 19:44 | 18.24746 | -74.06408 | 7938 ft | 107 kts | 260° |
| 2026-04-24 19:44 | 18.24661 | -74.07181 | 7937 ft | 106 kts | 261° |
| 2026-04-24 19:44 | 18.24577 | -74.07947 | 7933 ft | 105 kts | 260° |
| 2026-04-24 19:44 | 18.24493 | -74.08713 | 7934 ft | 106 kts | 259° |
| 2026-04-24 19:45 | 18.24409 | -74.09480 | 7936 ft | 105 kts | 260° |
| 2026-04-24 19:45 | 18.24325 | -74.10241 | 7935 ft | 104 kts | 260° |
| 2026-04-24 19:45 | 18.24242 | -74.10995 | 7933 ft | 103 kts | 260° |
| 2026-04-24 19:45 | 18.24160 | -74.11743 | 7931 ft | 103 kts | 259° |
| 2026-04-24 19:46 | 18.24079 | -74.12489 | 7932 ft | 103 kts | 259° |
| 2026-04-24 19:46 | 18.23997 | -74.13236 | 7933 ft | 103 kts | 260° |
| 2026-04-24 19:46 | 18.23915 | -74.13974 | 7931 ft | 103 kts | 260° |
| 2026-04-24 19:46 | 18.23832 | -74.14730 | 7931 ft | 103 kts | 260° |
| 2026-04-24 19:47 | 18.23750 | -74.15466 | 7928 ft | 103 kts | 260° |
| 2026-04-24 19:47 | 18.23668 | -74.16210 | 7927 ft | 102 kts | 260° |
| 2026-04-24 19:47 | 18.23586 | -74.16952 | 7925 ft | 102 kts | 260° |
| 2026-04-24 19:47 | 18.23503 | -74.17705 | 7926 ft | 102 kts | 259° |
| 2026-04-24 19:48 | 18.23423 | -74.18440 | 7930 ft | 102 kts | 259° |
| 2026-04-24 19:48 | 18.23339 | -74.19194 | 7929 ft | 102 kts | 259° |
| 2026-04-24 19:48 | 18.23178 | -74.20663 | 7929 ft | 102 kts | 260° |
| 2026-04-24 19:49 | 18.23013 | -74.22145 | 7921 ft | 102 kts | 260° |
| 2026-04-24 19:49 | 18.22848 | -74.23633 | 7921 ft | 103 kts | 260° |
| 2026-04-24 19:50 | 18.22628 | -74.25625 | 7921 ft | 103 kts | 260° |
| 2026-04-24 19:50 | 18.22545 | -74.26373 | 7920 ft | 103 kts | 260° |
| 2026-04-24 19:51 | 18.22380 | -74.27868 | 7920 ft | 103 kts | 259° |
| 2026-04-24 19:51 | 18.22297 | -74.28616 | 7921 ft | 103 kts | 259° |
| 2026-04-24 19:52 | 18.22131 | -74.30111 | 7921 ft | 103 kts | 260° |
| 2026-04-24 19:52 | 18.22049 | -74.30860 | 7921 ft | 103 kts | 260° |
| 2026-04-24 19:52 | 18.21965 | -74.31608 | 7922 ft | 103 kts | 260° |
| 2026-04-24 19:52 | 18.21882 | -74.32357 | 7922 ft | 103 kts | 260° |
| 2026-04-24 19:53 | 18.21798 | -74.33110 | 7924 ft | 104 kts | 260° |
| 2026-04-24 19:53 | 18.21714 | -74.33864 | 7924 ft | 104 kts | 260° |
| 2026-04-24 19:53 | 18.21548 | -74.35364 | 7923 ft | 103 kts | 259° |
| 2026-04-24 19:54 | 18.21464 | -74.36115 | 7918 ft | 103 kts | 260° |
| 2026-04-24 19:54 | 18.21382 | -74.36860 | 7918 ft | 102 kts | 260° |
| 2026-04-24 19:54 | 18.21299 | -74.37602 | 7918 ft | 102 kts | 260° |
| 2026-04-24 19:54 | 18.21216 | -74.38344 | 7918 ft | 102 kts | 260° |
| 2026-04-24 19:55 | 18.21161 | -74.38835 | 7918 ft | 102 kts | 260° |
| 2026-04-24 19:55 | 18.21053 | -74.39805 | 7919 ft | 102 kts | 260° |
| 2026-04-24 19:55 | 18.20970 | -74.40551 | 7918 ft | 102 kts | 260° |
| 2026-04-24 19:55 | 18.20888 | -74.41281 | 7917 ft | 101 kts | 260° |
| 2026-04-24 19:56 | 18.20807 | -74.42014 | 7917 ft | 101 kts | 260° |
| 2026-04-24 19:56 | 18.20726 | -74.42742 | 7947 ft | 97 kts | 260° |
| 2026-04-24 19:56 | 18.20649 | -74.43433 | 7998 ft | 96 kts | 259° |
| 2026-04-24 19:56 | 18.20570 | -74.44138 | 8001 ft | 98 kts | 260° |
| 2026-04-24 19:57 | 18.20489 | -74.44858 | 8003 ft | 100 kts | 260° |
| 2026-04-24 19:57 | 18.20408 | -74.45581 | 8005 ft | 100 kts | 260° |
| 2026-04-24 19:57 | 18.20327 | -74.46307 | 8004 ft | 100 kts | 259° |
| 2026-04-24 19:57 | 18.20245 | -74.47038 | 8007 ft | 101 kts | 259° |
| 2026-04-24 19:58 | 18.20163 | -74.47773 | 8009 ft | 101 kts | 260° |
| 2026-04-24 19:58 | 18.20081 | -74.48508 | 8009 ft | 101 kts | 260° |
| 2026-04-24 19:58 | 18.19999 | -74.49244 | 8010 ft | 101 kts | 260° |
| 2026-04-24 19:58 | 18.19916 | -74.49982 | 8009 ft | 102 kts | 260° |
| 2026-04-24 19:59 | 18.19833 | -74.50722 | 8007 ft | 102 kts | 260° |
| 2026-04-24 19:59 | 18.19749 | -74.51465 | 8006 ft | 102 kts | 260° |
| 2026-04-24 19:59 | 18.19666 | -74.52205 | 8006 ft | 102 kts | 260° |
| 2026-04-24 19:59 | 18.19584 | -74.52944 | 8004 ft | 102 kts | 260° |
| 2026-04-24 20:00 | 18.19501 | -74.53682 | 8006 ft | 102 kts | 260° |
| 2026-04-24 20:00 | 18.19419 | -74.54418 | 8006 ft | 102 kts | 259° |
| 2026-04-24 20:00 | 18.19336 | -74.55156 | 8007 ft | 102 kts | 260° |
| 2026-04-24 20:00 | 18.19253 | -74.55895 | 8006 ft | 102 kts | 260° |
| 2026-04-24 20:01 | 18.19170 | -74.56635 | 8007 ft | 102 kts | 260° |
| 2026-04-24 20:01 | 18.19087 | -74.57373 | 8004 ft | 102 kts | 260° |
| 2026-04-24 20:01 | 18.19003 | -74.58112 | 8005 ft | 102 kts | 260° |
| 2026-04-24 20:01 | 18.18920 | -74.58852 | 8004 ft | 102 kts | 260° |
| 2026-04-24 20:02 | 18.18837 | -74.59592 | 8004 ft | 102 kts | 260° |
| 2026-04-24 20:02 | 18.18754 | -74.60331 | 8003 ft | 102 kts | 260° |
| 2026-04-24 20:02 | 18.18671 | -74.61070 | 8004 ft | 102 kts | 260° |
| 2026-04-24 20:02 | 18.18588 | -74.61808 | 8004 ft | 101 kts | 260° |
| 2026-04-24 20:03 | 18.18506 | -74.62544 | 8004 ft | 101 kts | 260° |
| 2026-04-24 20:03 | 18.18422 | -74.63281 | 8005 ft | 102 kts | 260° |
| 2026-04-24 20:03 | 18.18339 | -74.64019 | 8005 ft | 102 kts | 260° |
| 2026-04-24 20:03 | 18.18255 | -74.64755 | 8000 ft | 101 kts | 260° |
| 2026-04-24 20:04 | 18.18173 | -74.65488 | 8000 ft | 101 kts | 260° |
| 2026-04-24 20:04 | 18.18091 | -74.66210 | 7998 ft | 101 kts | 260° |
| 2026-04-24 20:04 | 18.18009 | -74.66943 | 7999 ft | 101 kts | 260° |
| 2026-04-24 20:04 | 18.17926 | -74.67677 | 7999 ft | 101 kts | 260° |
| 2026-04-24 20:05 | 18.17843 | -74.68410 | 8001 ft | 101 kts | 260° |
| 2026-04-24 20:05 | 18.17761 | -74.69143 | 8000 ft | 101 kts | 260° |
| 2026-04-24 20:05 | 18.17677 | -74.69876 | 8000 ft | 101 kts | 260° |
| 2026-04-24 20:05 | 18.17594 | -74.70612 | 7999 ft | 101 kts | 260° |
| 2026-04-24 20:06 | 18.17510 | -74.71347 | 8001 ft | 101 kts | 260° |
| 2026-04-24 20:06 | 18.17427 | -74.72083 | 8000 ft | 101 kts | 260° |
| 2026-04-24 20:06 | 18.17344 | -74.72816 | 7999 ft | 101 kts | 260° |
| 2026-04-24 20:06 | 18.17262 | -74.73549 | 7999 ft | 101 kts | 260° |
| 2026-04-24 20:07 | 18.17207 | -74.74035 | 7998 ft | 101 kts | 261° |
| 2026-04-24 20:07 | 18.17096 | -74.75018 | 8000 ft | 102 kts | 260° |
| 2026-04-24 20:07 | 18.17011 | -74.75759 | 8000 ft | 102 kts | 260° |
| 2026-04-24 20:07 | 18.16927 | -74.76499 | 8000 ft | 102 kts | 261° |
| 2026-04-24 20:08 | 18.16843 | -74.77234 | 8002 ft | 101 kts | 260° |
| 2026-04-24 20:08 | 18.16760 | -74.77966 | 8003 ft | 101 kts | 260° |
| 2026-04-24 20:08 | 18.16677 | -74.78699 | 7999 ft | 101 kts | 260° |
| 2026-04-24 20:08 | 18.16595 | -74.79428 | 7997 ft | 100 kts | 260° |
| 2026-04-24 20:09 | 18.16512 | -74.80157 | 7996 ft | 100 kts | 260° |
| 2026-04-24 20:09 | 18.16429 | -74.80889 | 7994 ft | 101 kts | 260° |
| 2026-04-24 20:09 | 18.16345 | -74.81624 | 7995 ft | 101 kts | 260° |
| 2026-04-24 20:09 | 18.16261 | -74.82362 | 7995 ft | 102 kts | 260° |
| 2026-04-24 20:10 | 18.16177 | -74.83102 | 7993 ft | 102 kts | 260° |
| 2026-04-24 20:10 | 18.16092 | -74.83843 | 7994 ft | 102 kts | 260° |
| 2026-04-24 20:10 | 18.16008 | -74.84585 | 7994 ft | 102 kts | 260° |
| 2026-04-24 20:10 | 18.15924 | -74.85327 | 7994 ft | 102 kts | 260° |
| 2026-04-24 20:11 | 18.15839 | -74.86070 | 7997 ft | 102 kts | 260° |
| 2026-04-24 20:11 | 18.15755 | -74.86814 | 7998 ft | 103 kts | 260° |
| 2026-04-24 20:11 | 18.15670 | -74.87559 | 7998 ft | 103 kts | 260° |
| 2026-04-24 20:11 | 18.15585 | -74.88305 | 7997 ft | 103 kts | 260° |
| 2026-04-24 20:12 | 18.15499 | -74.89052 | 7995 ft | 103 kts | 261° |
| 2026-04-24 20:12 | 18.15414 | -74.89798 | 7996 ft | 103 kts | 261° |
| 2026-04-24 20:12 | 18.15328 | -74.90546 | 7997 ft | 103 kts | 260° |
| 2026-04-24 20:12 | 18.15243 | -74.91294 | 7996 ft | 103 kts | 260° |
| 2026-04-24 20:13 | 18.15158 | -74.92043 | 7998 ft | 103 kts | 260° |
| 2026-04-24 20:13 | 18.15073 | -74.92790 | 7998 ft | 103 kts | 260° |
| 2026-04-24 20:13 | 18.14987 | -74.93537 | 7997 ft | 103 kts | 260° |
| 2026-04-24 20:13 | 18.14902 | -74.94281 | 7996 ft | 102 kts | 260° |
| 2026-04-24 20:14 | 18.14817 | -74.95023 | 7997 ft | 102 kts | 261° |
| 2026-04-24 20:14 | 18.14732 | -74.95763 | 7997 ft | 102 kts | 260° |
| 2026-04-24 20:14 | 18.14649 | -74.96492 | 7998 ft | 102 kts | 260° |
| 2026-04-24 20:14 | 18.14564 | -74.97234 | 7997 ft | 102 kts | 260° |
| 2026-04-24 20:15 | 18.14479 | -74.97975 | 7995 ft | 102 kts | 260° |
| 2026-04-24 20:15 | 18.14394 | -74.98714 | 7996 ft | 102 kts | 260° |
| 2026-04-24 20:15 | 18.14310 | -74.99454 | 7996 ft | 102 kts | 260° |
| 2026-04-24 20:15 | 18.14225 | -75.00195 | 7996 ft | 102 kts | 260° |
| 2026-04-24 20:16 | 18.14140 | -75.00936 | 7999 ft | 102 kts | 260° |
| 2026-04-24 20:16 | 18.14055 | -75.01677 | 7999 ft | 102 kts | 260° |
| 2026-04-24 20:16 | 18.13969 | -75.02420 | 7998 ft | 102 kts | 260° |
| 2026-04-24 20:16 | 18.13884 | -75.03159 | 7997 ft | 102 kts | 260° |
| 2026-04-24 20:17 | 18.13799 | -75.03898 | 7995 ft | 102 kts | 260° |
| 2026-04-24 20:17 | 18.13629 | -75.05378 | 7996 ft | 102 kts | 260° |
| 2026-04-24 20:17 | 18.13545 | -75.06119 | 7997 ft | 102 kts | 260° |
| 2026-04-24 20:18 | 18.13488 | -75.06608 | 7997 ft | 102 kts | 260° |
| 2026-04-24 20:18 | 18.13375 | -75.07595 | 7994 ft | 102 kts | 260° |
| 2026-04-24 20:18 | 18.13290 | -75.08333 | 7994 ft | 102 kts | 260° |
| 2026-04-24 20:18 | 18.13204 | -75.09071 | 7994 ft | 102 kts | 260° |
| 2026-04-24 20:19 | 18.13119 | -75.09811 | 7994 ft | 102 kts | 260° |
| 2026-04-24 20:19 | 18.13034 | -75.10550 | 7994 ft | 102 kts | 260° |
| 2026-04-24 20:19 | 18.12948 | -75.11291 | 7996 ft | 102 kts | 260° |
| 2026-04-24 20:19 | 18.12863 | -75.12035 | 7995 ft | 102 kts | 260° |
| 2026-04-24 20:20 | 18.12778 | -75.12777 | 7996 ft | 102 kts | 260° |
| 2026-04-24 20:20 | 18.12693 | -75.13517 | 7997 ft | 102 kts | 260° |
| 2026-04-24 20:20 | 18.12607 | -75.14260 | 7997 ft | 102 kts | 260° |
| 2026-04-24 20:20 | 18.12522 | -75.14992 | 7997 ft | 102 kts | 261° |
| 2026-04-24 20:21 | 18.12435 | -75.15736 | 7995 ft | 103 kts | 260° |
| 2026-04-24 20:21 | 18.12349 | -75.16481 | 7996 ft | 103 kts | 260° |
| 2026-04-24 20:21 | 18.12264 | -75.17226 | 7995 ft | 103 kts | 260° |
| 2026-04-24 20:21 | 18.12178 | -75.17971 | 7994 ft | 102 kts | 260° |
| 2026-04-24 20:22 | 18.12092 | -75.18714 | 7995 ft | 103 kts | 260° |
| 2026-04-24 20:22 | 18.12006 | -75.19459 | 7996 ft | 103 kts | 261° |
| 2026-04-24 20:22 | 18.11919 | -75.20205 | 7995 ft | 102 kts | 260° |
| 2026-04-24 20:22 | 18.11833 | -75.20946 | 7994 ft | 102 kts | 260° |
| 2026-04-24 20:23 | 18.11747 | -75.21689 | 7991 ft | 102 kts | 260° |
| 2026-04-24 20:23 | 18.11661 | -75.22430 | 7992 ft | 102 kts | 260° |
| 2026-04-24 20:23 | 18.11576 | -75.23170 | 7992 ft | 102 kts | 260° |
| 2026-04-24 20:23 | 18.11490 | -75.23910 | 7990 ft | 102 kts | 260° |
| 2026-04-24 20:24 | 18.11434 | -75.24398 | 7991 ft | 102 kts | 260° |
| 2026-04-24 20:24 | 18.11320 | -75.25382 | 7991 ft | 101 kts | 260° |
| 2026-04-24 20:24 | 18.11234 | -75.26119 | 7991 ft | 102 kts | 260° |
| 2026-04-24 20:24 | 18.11148 | -75.26856 | 7991 ft | 101 kts | 261° |
| 2026-04-24 20:25 | 18.11063 | -75.27590 | 7989 ft | 101 kts | 261° |
| 2026-04-24 20:25 | 18.10977 | -75.28324 | 7989 ft | 101 kts | 260° |
| 2026-04-24 20:25 | 18.10892 | -75.29058 | 7990 ft | 101 kts | 260° |
| 2026-04-24 20:25 | 18.10807 | -75.29792 | 7990 ft | 101 kts | 260° |
| 2026-04-24 20:26 | 18.10722 | -75.30525 | 7987 ft | 101 kts | 260° |
| 2026-04-24 20:26 | 18.10637 | -75.31258 | 7988 ft | 101 kts | 260° |
| 2026-04-24 20:26 | 18.10552 | -75.31992 | 7988 ft | 101 kts | 260° |
| 2026-04-24 20:26 | 18.10466 | -75.32726 | 7988 ft | 101 kts | 260° |
| 2026-04-24 20:27 | 18.10380 | -75.33460 | 7990 ft | 101 kts | 260° |
| 2026-04-24 20:27 | 18.10294 | -75.34196 | 7990 ft | 101 kts | 260° |
| 2026-04-24 20:27 | 18.10208 | -75.34932 | 7990 ft | 101 kts | 260° |
| 2026-04-24 20:27 | 18.10123 | -75.35667 | 7990 ft | 101 kts | 260° |
| 2026-04-24 20:28 | 18.10037 | -75.36403 | 7988 ft | 101 kts | 260° |
| 2026-04-24 20:28 | 18.09952 | -75.37139 | 7988 ft | 101 kts | 260° |
| 2026-04-24 20:28 | 18.09866 | -75.37876 | 7988 ft | 102 kts | 260° |
| 2026-04-24 20:28 | 18.09779 | -75.38614 | 7989 ft | 102 kts | 261° |
| 2026-04-24 20:29 | 18.09722 | -75.39104 | 7991 ft | 102 kts | 260° |
| 2026-04-24 20:29 | 18.09606 | -75.40092 | 7992 ft | 102 kts | 261° |
| 2026-04-24 20:29 | 18.09520 | -75.40834 | 7993 ft | 102 kts | 261° |
| 2026-04-24 20:29 | 18.09433 | -75.41576 | 7992 ft | 102 kts | 260° |
| 2026-04-24 20:30 | 18.09347 | -75.42316 | 7990 ft | 102 kts | 260° |
| 2026-04-24 20:30 | 18.09260 | -75.43055 | 7993 ft | 102 kts | 260° |
| 2026-04-24 20:30 | 18.09175 | -75.43791 | 7991 ft | 101 kts | 260° |
| 2026-04-24 20:30 | 18.09089 | -75.44522 | 7990 ft | 101 kts | 260° |
| 2026-04-24 20:31 | 18.09004 | -75.45250 | 7988 ft | 100 kts | 261° |
| 2026-04-24 20:31 | 18.08918 | -75.45980 | 7989 ft | 101 kts | 260° |
| 2026-04-24 20:31 | 18.08832 | -75.46711 | 7990 ft | 101 kts | 260° |
| 2026-04-24 20:31 | 18.08747 | -75.47441 | 7989 ft | 100 kts | 260° |
| 2026-04-24 20:32 | 18.08661 | -75.48168 | 7990 ft | 100 kts | 260° |
| 2026-04-24 20:32 | 18.08576 | -75.48896 | 7991 ft | 100 kts | 260° |
| 2026-04-24 20:32 | 18.08491 | -75.49625 | 7991 ft | 101 kts | 260° |
| 2026-04-24 20:32 | 18.08406 | -75.50353 | 7989 ft | 100 kts | 260° |
| 2026-04-24 20:33 | 18.08320 | -75.51082 | 7988 ft | 101 kts | 260° |
| 2026-04-24 20:33 | 18.08234 | -75.51811 | 7988 ft | 101 kts | 260° |
| 2026-04-24 20:33 | 18.08150 | -75.52531 | 7989 ft | 101 kts | 260° |
| 2026-04-24 20:33 | 18.08063 | -75.53263 | 7989 ft | 101 kts | 260° |
| 2026-04-24 20:34 | 18.07977 | -75.53994 | 7989 ft | 101 kts | 260° |
| 2026-04-24 20:34 | 18.07891 | -75.54730 | 7990 ft | 102 kts | 260° |
| 2026-04-24 20:34 | 18.07804 | -75.55469 | 7988 ft | 102 kts | 260° |
| 2026-04-24 20:34 | 18.07717 | -75.56209 | 7987 ft | 102 kts | 260° |
| 2026-04-24 20:35 | 18.07631 | -75.56945 | 7988 ft | 101 kts | 260° |
| 2026-04-24 20:35 | 18.07545 | -75.57680 | 7987 ft | 101 kts | 260° |
| 2026-04-24 20:35 | 18.07457 | -75.58416 | 7988 ft | 102 kts | 260° |
| 2026-04-24 20:35 | 18.07370 | -75.59154 | 7989 ft | 102 kts | 260° |
| 2026-04-24 20:36 | 18.07283 | -75.59894 | 7986 ft | 102 kts | 260° |
| 2026-04-24 20:36 | 18.07196 | -75.60631 | 7986 ft | 102 kts | 260° |
| 2026-04-24 20:36 | 18.07110 | -75.61368 | 7987 ft | 102 kts | 260° |
| 2026-04-24 20:36 | 18.07023 | -75.62104 | 7987 ft | 102 kts | 260° |
| 2026-04-24 20:37 | 18.06937 | -75.62840 | 7984 ft | 101 kts | 260° |
| 2026-04-24 20:37 | 18.06850 | -75.63572 | 7982 ft | 101 kts | 261° |
| 2026-04-24 20:37 | 18.06763 | -75.64304 | 7983 ft | 101 kts | 261° |
| 2026-04-24 20:37 | 18.06676 | -75.65037 | 7984 ft | 101 kts | 260° |
| 2026-04-24 20:38 | 18.06589 | -75.65773 | 7984 ft | 102 kts | 260° |
| 2026-04-24 20:38 | 18.06502 | -75.66509 | 7983 ft | 101 kts | 260° |
| 2026-04-24 20:38 | 18.06416 | -75.67243 | 7983 ft | 101 kts | 260° |
| 2026-04-24 20:38 | 18.06329 | -75.67975 | 7982 ft | 101 kts | 260° |
| 2026-04-24 20:39 | 18.06243 | -75.68708 | 7983 ft | 101 kts | 260° |
| 2026-04-24 20:39 | 18.06156 | -75.69442 | 7984 ft | 101 kts | 260° |
| 2026-04-24 20:39 | 18.06069 | -75.70178 | 7984 ft | 101 kts | 260° |
| 2026-04-24 20:39 | 18.05982 | -75.70913 | 7984 ft | 101 kts | 260° |
| 2026-04-24 20:40 | 18.05895 | -75.71647 | 7985 ft | 101 kts | 260° |
| 2026-04-24 20:40 | 18.05808 | -75.72381 | 7984 ft | 101 kts | 261° |
| 2026-04-24 20:40 | 18.05721 | -75.73112 | 7984 ft | 101 kts | 261° |
| 2026-04-24 20:40 | 18.05634 | -75.73843 | 7984 ft | 101 kts | 261° |
| 2026-04-24 20:41 | 18.05547 | -75.74575 | 7986 ft | 101 kts | 260° |
| 2026-04-24 20:41 | 18.05491 | -75.75060 | 7986 ft | 101 kts | 260° |
| 2026-04-24 20:41 | 18.05404 | -75.75789 | 7985 ft | 100 kts | 260° |
| 2026-04-24 20:41 | 18.05318 | -75.76513 | 7984 ft | 100 kts | 261° |
| 2026-04-24 20:42 | 18.05232 | -75.77236 | 7983 ft | 100 kts | 260° |
| 2026-04-24 20:42 | 18.05145 | -75.77962 | 7984 ft | 100 kts | 260° |
| 2026-04-24 20:42 | 18.05059 | -75.78689 | 7980 ft | 100 kts | 260° |
| 2026-04-24 20:42 | 18.04972 | -75.79416 | 7980 ft | 100 kts | 260° |
| 2026-04-24 20:43 | 18.04886 | -75.80143 | 7981 ft | 100 kts | 260° |
| 2026-04-24 20:43 | 18.04800 | -75.80871 | 7982 ft | 100 kts | 260° |
| 2026-04-24 20:43 | 18.04714 | -75.81598 | 7982 ft | 100 kts | 260° |
| 2026-04-24 20:43 | 18.04627 | -75.82325 | 7983 ft | 100 kts | 260° |
| 2026-04-24 20:44 | 18.04540 | -75.83052 | 7982 ft | 100 kts | 261° |
| 2026-04-24 20:44 | 18.04453 | -75.83779 | 7982 ft | 100 kts | 261° |
| 2026-04-24 20:44 | 18.04366 | -75.84508 | 7983 ft | 101 kts | 260° |
| 2026-04-24 20:44 | 18.04279 | -75.85237 | 7983 ft | 101 kts | 261° |
| 2026-04-24 20:45 | 18.04192 | -75.85965 | 7981 ft | 100 kts | 260° |
| 2026-04-24 20:45 | 18.04106 | -75.86692 | 7979 ft | 100 kts | 260° |
| 2026-04-24 20:45 | 18.04021 | -75.87407 | 7979 ft | 100 kts | 260° |
| 2026-04-24 20:45 | 18.03935 | -75.88130 | 7980 ft | 100 kts | 260° |
| 2026-04-24 20:46 | 18.03848 | -75.88856 | 7980 ft | 100 kts | 260° |
| 2026-04-24 20:46 | 18.03762 | -75.89581 | 7980 ft | 100 kts | 260° |
| 2026-04-24 20:46 | 18.03675 | -75.90304 | 7981 ft | 100 kts | 261° |
| 2026-04-24 20:46 | 18.03589 | -75.91026 | 7981 ft | 100 kts | 260° |
| 2026-04-24 20:47 | 18.03502 | -75.91747 | 7978 ft | 100 kts | 260° |
| 2026-04-24 20:47 | 18.03416 | -75.92471 | 7978 ft | 100 kts | 261° |
| 2026-04-24 20:47 | 18.03329 | -75.93196 | 7979 ft | 100 kts | 260° |
| 2026-04-24 20:47 | 18.03242 | -75.93924 | 7979 ft | 100 kts | 260° |
| 2026-04-24 20:48 | 18.03155 | -75.94652 | 7985 ft | 101 kts | 260° |
| 2026-04-24 20:48 | 18.03068 | -75.95380 | 7983 ft | 100 kts | 260° |
| 2026-04-24 20:48 | 18.02981 | -75.96107 | 7983 ft | 100 kts | 260° |
| 2026-04-24 20:48 | 18.02895 | -75.96832 | 7983 ft | 100 kts | 260° |
| 2026-04-24 20:49 | 18.02807 | -75.97560 | 7984 ft | 101 kts | 261° |
| 2026-04-24 20:49 | 18.02719 | -75.98291 | 7984 ft | 101 kts | 261° |
| 2026-04-24 20:49 | 18.02631 | -75.99023 | 7983 ft | 101 kts | 260° |
| 2026-04-24 20:49 | 18.02543 | -75.99753 | 7982 ft | 101 kts | 260° |
| 2026-04-24 20:50 | 18.02456 | -76.00484 | 7979 ft | 101 kts | 260° |
| 2026-04-24 20:50 | 18.02369 | -76.01211 | 7980 ft | 100 kts | 260° |
| 2026-04-24 20:50 | 18.02282 | -76.01938 | 7980 ft | 100 kts | 261° |
| 2026-04-24 20:50 | 18.02195 | -76.02663 | 7980 ft | 100 kts | 260° |
| 2026-04-24 20:51 | 18.02108 | -76.03390 | 7980 ft | 100 kts | 260° |
| 2026-04-24 20:51 | 18.02020 | -76.04115 | 7981 ft | 100 kts | 261° |
| 2026-04-24 20:51 | 18.01933 | -76.04838 | 7981 ft | 100 kts | 261° |
| 2026-04-24 20:51 | 18.01846 | -76.05560 | 7981 ft | 100 kts | 260° |
| 2026-04-24 20:52 | 18.01759 | -76.06285 | 7982 ft | 100 kts | 260° |
| 2026-04-24 20:52 | 18.01672 | -76.07010 | 7983 ft | 100 kts | 260° |
| 2026-04-24 20:52 | 18.01585 | -76.07735 | 7976 ft | 100 kts | 260° |
| 2026-04-24 20:52 | 18.01497 | -76.08465 | 7976 ft | 101 kts | 260° |
| 2026-04-24 20:53 | 18.01409 | -76.09198 | 7975 ft | 101 kts | 260° |
| 2026-04-24 20:53 | 18.01320 | -76.09932 | 7974 ft | 101 kts | 260° |
| 2026-04-24 20:53 | 18.01231 | -76.10666 | 7975 ft | 101 kts | 260° |
| 2026-04-24 20:53 | 18.01143 | -76.11398 | 7975 ft | 101 kts | 260° |
| 2026-04-24 20:54 | 18.01055 | -76.12128 | 7980 ft | 101 kts | 260° |
| 2026-04-24 20:54 | 18.00967 | -76.12860 | 7978 ft | 101 kts | 260° |
| 2026-04-24 20:54 | 18.00879 | -76.13592 | 7978 ft | 101 kts | 260° |
| 2026-04-24 20:54 | 18.00791 | -76.14324 | 7979 ft | 101 kts | 260° |
| 2026-04-24 20:55 | 18.00703 | -76.15053 | 7972 ft | 100 kts | 260° |
| 2026-04-24 20:55 | 18.00615 | -76.15781 | 7973 ft | 101 kts | 261° |
| 2026-04-24 20:55 | 18.00526 | -76.16510 | 7973 ft | 101 kts | 260° |
| 2026-04-24 20:55 | 18.00438 | -76.17240 | 7971 ft | 100 kts | 260° |
| 2026-04-24 20:56 | 18.00350 | -76.17966 | 7971 ft | 100 kts | 261° |
| 2026-04-24 20:56 | 18.00263 | -76.18688 | 7971 ft | 100 kts | 260° |
| 2026-04-24 20:56 | 18.00175 | -76.19412 | 7971 ft | 100 kts | 260° |
| 2026-04-24 20:56 | 18.00088 | -76.20140 | 7972 ft | 101 kts | 260° |
| 2026-04-24 20:57 | 17.99999 | -76.20871 | 7977 ft | 101 kts | 260° |
| 2026-04-24 20:57 | 17.99910 | -76.21603 | 7978 ft | 101 kts | 261° |
| 2026-04-24 20:57 | 17.99821 | -76.22337 | 7979 ft | 101 kts | 260° |
| 2026-04-24 20:57 | 17.99732 | -76.23073 | 7978 ft | 102 kts | 260° |
| 2026-04-24 20:58 | 17.99642 | -76.23810 | 7976 ft | 102 kts | 260° |
| 2026-04-24 20:58 | 17.99553 | -76.24548 | 7975 ft | 102 kts | 261° |
| 2026-04-24 20:58 | 17.99463 | -76.25287 | 7982 ft | 103 kts | 260° |
| 2026-04-24 20:58 | 17.99372 | -76.26040 | 7974 ft | 104 kts | 260° |
| 2026-04-24 20:59 | 17.99281 | -76.26791 | 7974 ft | 103 kts | 260° |
| 2026-04-24 20:59 | 17.99191 | -76.27534 | 7969 ft | 103 kts | 259° |
| 2026-04-24 20:59 | 17.99102 | -76.28266 | 7967 ft | 102 kts | 260° |
| 2026-04-24 20:59 | 17.99012 | -76.29009 | 7968 ft | 101 kts | 260° |
| 2026-04-24 21:00 | 17.98923 | -76.29739 | 7967 ft | 100 kts | 260° |
| 2026-04-24 21:00 | 17.98835 | -76.30460 | 7966 ft | 98 kts | 260° |
| 2026-04-24 21:00 | 17.98750 | -76.31159 | 7968 ft | 98 kts | 261° |
| 2026-04-24 21:00 | 17.98661 | -76.31885 | 7971 ft | 99 kts | 261° |
| 2026-04-24 21:01 | 17.98573 | -76.32608 | 7976 ft | 103 kts | 261° |
| 2026-04-24 21:01 | 17.98482 | -76.33360 | 7975 ft | 104 kts | 260° |
| 2026-04-24 21:01 | 17.98390 | -76.34120 | 7979 ft | 103 kts | 260° |
| 2026-04-24 21:01 | 17.98300 | -76.34856 | 7976 ft | 102 kts | 261° |
| 2026-04-24 21:02 | 17.98210 | -76.35600 | 7973 ft | 103 kts | 261° |
| 2026-04-24 21:02 | 17.98118 | -76.36348 | 7972 ft | 103 kts | 261° |
| 2026-04-24 21:02 | 17.98027 | -76.37096 | 7978 ft | 104 kts | 260° |
| 2026-04-24 21:02 | 17.97935 | -76.37851 | 7972 ft | 104 kts | 259° |
| 2026-04-24 21:03 | 17.97844 | -76.38596 | 7972 ft | 103 kts | 260° |
| 2026-04-24 21:03 | 17.97754 | -76.39340 | 7968 ft | 102 kts | 260° |
| 2026-04-24 21:03 | 17.97663 | -76.40082 | 7972 ft | 103 kts | 260° |
| 2026-04-24 21:03 | 17.97572 | -76.40827 | 7973 ft | 103 kts | 260° |
| 2026-04-24 21:04 | 17.97480 | -76.41577 | 7967 ft | 103 kts | 261° |
| 2026-04-24 21:04 | 17.97390 | -76.42309 | 7970 ft | 101 kts | 260° |
| 2026-04-24 21:04 | 17.97301 | -76.43047 | 7932 ft | 105 kts | 261° |
| 2026-04-24 21:04 | 17.97205 | -76.43819 | 7853 ft | 108 kts | 261° |
| 2026-04-24 21:05 | 17.97108 | -76.44622 | 7710 ft | 110 kts | 262° |
| 2026-04-24 21:05 | 17.97010 | -76.45421 | 7646 ft | 113 kts | 260° |
| 2026-04-24 21:05 | 17.96907 | -76.46258 | 7562 ft | 117 kts | 261° |
| 2026-04-24 21:05 | 17.96800 | -76.47118 | 7474 ft | 120 kts | 260° |
| 2026-04-24 21:06 | 17.96696 | -76.47996 | 7375 ft | 121 kts | 261° |
| 2026-04-24 21:06 | 17.96589 | -76.48867 | 7274 ft | 119 kts | 261° |
| 2026-04-24 21:06 | 17.96483 | -76.49726 | 7179 ft | 119 kts | 260° |
| 2026-04-24 21:06 | 17.96377 | -76.50588 | 7078 ft | 119 kts | 261° |
| 2026-04-24 21:07 | 17.96271 | -76.51455 | 6986 ft | 120 kts | 261° |
| 2026-04-24 21:07 | 17.96164 | -76.52326 | 6868 ft | 122 kts | 261° |
| 2026-04-24 21:07 | 17.96056 | -76.53206 | 6731 ft | 120 kts | 261° |
| 2026-04-24 21:07 | 17.95949 | -76.54075 | 6579 ft | 120 kts | 260° |
| 2026-04-24 21:08 | 17.95841 | -76.54947 | 6451 ft | 122 kts | 262° |
| 2026-04-24 21:08 | 17.95734 | -76.55827 | 6294 ft | 118 kts | 260° |
| 2026-04-24 21:08 | 17.95631 | -76.56670 | 6153 ft | 117 kts | 261° |
| 2026-04-24 21:08 | 17.95525 | -76.57529 | 6010 ft | 119 kts | 259° |
| 2026-04-24 21:09 | 17.95416 | -76.58396 | 5877 ft | 122 kts | 261° |
| 2026-04-24 21:09 | 17.95305 | -76.59302 | 5732 ft | 127 kts | 262° |
| 2026-04-24 21:09 | 17.95197 | -76.60220 | 5576 ft | 127 kts | 262° |
| 2026-04-24 21:09 | 17.95079 | -76.61140 | 5435 ft | 128 kts | 261° |
| 2026-04-24 21:10 | 17.94968 | -76.62053 | 5281 ft | 124 kts | 263° |
| 2026-04-24 21:10 | 17.94856 | -76.62952 | 5135 ft | 125 kts | 261° |
| 2026-04-24 21:10 | 17.94744 | -76.63861 | 5006 ft | 126 kts | 262° |
| 2026-04-24 21:10 | 17.94632 | -76.64773 | 4886 ft | 126 kts | 261° |
| 2026-04-24 21:11 | 17.94518 | -76.65690 | 4769 ft | 128 kts | 262° |
| 2026-04-24 21:11 | 17.94404 | -76.66619 | 4653 ft | 129 kts | 261° |
| 2026-04-24 21:11 | 17.94287 | -76.67561 | 4537 ft | 131 kts | 262° |
| 2026-04-24 21:11 | 17.94170 | -76.68503 | 4458 ft | 129 kts | 261° |
| 2026-04-24 21:12 | 17.94056 | -76.69430 | 4374 ft | 126 kts | 261° |
| 2026-04-24 21:12 | 17.93983 | -76.70029 | 4322 ft | 124 kts | 261° |
| 2026-04-24 21:12 | 17.93835 | -76.71219 | 4221 ft | 122 kts | 261° |
| 2026-04-24 21:12 | 17.93726 | -76.72099 | 4146 ft | 121 kts | 260° |
| 2026-04-24 21:13 | 17.93618 | -76.72974 | 4069 ft | 121 kts | 260° |
| 2026-04-24 21:13 | 17.93510 | -76.73842 | 3995 ft | 119 kts | 261° |
| 2026-04-24 21:13 | 17.93404 | -76.74699 | 3954 ft | 116 kts | 260° |
| 2026-04-24 21:13 | 17.93301 | -76.75528 | 3951 ft | 113 kts | 260° |
| 2026-04-24 21:14 | 17.93200 | -76.76340 | 3945 ft | 111 kts | 261° |
| 2026-04-24 21:14 | 17.93102 | -76.77137 | 3945 ft | 110 kts | 261° |
| 2026-04-24 21:14 | 17.93000 | -76.77941 | 3954 ft | 113 kts | 261° |
| 2026-04-24 21:14 | 17.92891 | -76.78740 | 3948 ft | 111 kts | 259° |
| 2026-04-24 21:15 | 17.92776 | -76.79541 | 3943 ft | 111 kts | 259° |
| 2026-04-24 21:15 | 17.92665 | -76.80333 | 3946 ft | 109 kts | 260° |
| 2026-04-24 21:15 | 17.92554 | -76.81125 | 3944 ft | 110 kts | 260° |
| 2026-04-24 21:15 | 17.92444 | -76.81913 | 3942 ft | 108 kts | 260° |
| 2026-04-24 21:16 | 17.92335 | -76.82697 | 3944 ft | 109 kts | 259° |
| 2026-04-24 21:16 | 17.92224 | -76.83488 | 3946 ft | 110 kts | 260° |
| 2026-04-24 21:16 | 17.92111 | -76.84290 | 3947 ft | 111 kts | 260° |
| 2026-04-24 21:16 | 17.91998 | -76.85099 | 3947 ft | 113 kts | 259° |
| 2026-04-24 21:17 | 17.91885 | -76.85910 | 3946 ft | 112 kts | 259° |
| 2026-04-24 21:17 | 17.91771 | -76.86722 | 3949 ft | 113 kts | 259° |
| 2026-04-24 21:17 | 17.91657 | -76.87535 | 3949 ft | 112 kts | 259° |
| 2026-04-24 21:17 | 17.91581 | -76.88081 | 3954 ft | 112 kts | 259° |
| 2026-04-24 21:18 | 17.91429 | -76.89158 | 3954 ft | 113 kts | 260° |
| 2026-04-24 21:18 | 17.91314 | -76.89977 | 3955 ft | 114 kts | 260° |
| 2026-04-24 21:18 | 17.91200 | -76.90792 | 3949 ft | 112 kts | 260° |
| 2026-04-24 21:18 | 17.91087 | -76.91598 | 3952 ft | 111 kts | 259° |
| 2026-04-24 21:19 | 17.90974 | -76.92403 | 3956 ft | 112 kts | 259° |
| 2026-04-24 21:19 | 17.90860 | -76.93211 | 3952 ft | 111 kts | 259° |
| 2026-04-24 21:19 | 17.90749 | -76.94009 | 3955 ft | 110 kts | 260° |
| 2026-04-24 21:19 | 17.90636 | -76.94808 | 3954 ft | 111 kts | 259° |
| 2026-04-24 21:20 | 17.90414 | -76.96386 | 3948 ft | 109 kts | 259° |
| 2026-04-24 21:20 | 17.90303 | -76.97181 | 3957 ft | 112 kts | 260° |
| 2026-04-24 21:20 | 17.90187 | -76.97995 | 3955 ft | 112 kts | 260° |
| 2026-04-24 21:21 | 17.90073 | -76.98814 | 3962 ft | 116 kts | 260° |
| 2026-04-24 21:21 | 17.89954 | -76.99660 | 3960 ft | 117 kts | 260° |
| 2026-04-24 21:21 | 17.89834 | -77.00503 | 3961 ft | 116 kts | 261° |
| 2026-04-24 21:21 | 17.89718 | -77.01329 | 3952 ft | 113 kts | 259° |
| 2026-04-24 21:22 | 17.89605 | -77.02135 | 3954 ft | 111 kts | 260° |
| 2026-04-24 21:22 | 17.89492 | -77.02941 | 3952 ft | 112 kts | 260° |
| 2026-04-24 21:22 | 17.89377 | -77.03750 | 3952 ft | 113 kts | 260° |
| 2026-04-24 21:22 | 17.89301 | -77.04287 | 3952 ft | 112 kts | 260° |
| 2026-04-24 21:23 | 17.89148 | -77.05375 | 3955 ft | 113 kts | 259° |
| 2026-04-24 21:23 | 17.89117 | -77.06195 | 3954 ft | 115 kts | 280° |
| 2026-04-24 21:23 | 17.89499 | -77.06930 | 3959 ft | 118 kts | 311° |
| 2026-04-24 21:23 | 17.90211 | -77.07335 | 3961 ft | 122 kts | 346° |
| 2026-04-24 21:24 | 17.91058 | -77.07413 | 3963 ft | 123 kts | 352° |
| 2026-04-24 21:24 | 17.91913 | -77.07463 | 3971 ft | 123 kts | 356° |
| 2026-04-24 21:24 | 17.92782 | -77.07487 | 3956 ft | 126 kts | 358° |
| 2026-04-24 21:24 | 17.93669 | -77.07480 | 3959 ft | 126 kts | 359° |
| 2026-04-24 21:25 | 17.94532 | -77.07447 | 3957 ft | 126 kts | 1° |
| 2026-04-24 21:25 | 17.95406 | -77.07384 | 3957 ft | 126 kts | 3° |
| 2026-04-24 21:25 | 17.96284 | -77.07292 | 3961 ft | 127 kts | 5° |
| 2026-04-24 21:25 | 17.97167 | -77.07171 | 3963 ft | 128 kts | 6° |
| 2026-04-24 21:26 | 17.98049 | -77.07021 | 3958 ft | 128 kts | 8° |
| 2026-04-24 21:26 | 17.98916 | -77.06841 | 3950 ft | 127 kts | 10° |
| 2026-04-24 21:26 | 17.99773 | -77.06636 | 3953 ft | 127 kts | 12° |
| 2026-04-24 21:26 | 18.00626 | -77.06400 | 3958 ft | 127 kts | 15° |
| 2026-04-24 21:27 | 18.01447 | -77.06146 | 3942 ft | 119 kts | 17° |
| 2026-04-24 21:27 | 18.02193 | -77.05892 | 3954 ft | 109 kts | 17° |
| 2026-04-24 21:27 | 18.02893 | -77.05626 | 3949 ft | 103 kts | 19° |
| 2026-04-24 21:27 | 18.03341 | -77.05446 | 3946 ft | 100 kts | 21° |
| 2026-04-24 21:28 | 18.04160 | -77.05093 | 3963 ft | 92 kts | 24° |
| 2026-04-24 21:28 | 18.04769 | -77.04813 | 3980 ft | 100 kts | 23° |
| 2026-04-24 21:28 | 18.05338 | -77.04346 | 3913 ft | 112 kts | 73° |
| 2026-04-24 21:28 | 18.05188 | -77.03588 | 3845 ft | 110 kts | 143° |
| 2026-04-24 21:29 | 18.04513 | -77.03206 | 3780 ft | 115 kts | 153° |
| 2026-04-24 21:29 | 18.04121 | -77.02812 | 3724 ft | 122 kts | 131° |
| 2026-04-24 21:29 | 18.03696 | -77.01998 | 3644 ft | 128 kts | 122° |
| 2026-04-24 21:29 | 18.03177 | -77.00875 | 3510 ft | 129 kts | 121° |
| 2026-04-24 21:30 | 18.02928 | -77.00310 | 3450 ft | 128 kts | 121° |
| 2026-04-24 21:30 | 18.02552 | -76.99470 | 3351 ft | 125 kts | 119° |
| 2026-04-24 21:30 | 18.02233 | -76.98593 | 3255 ft | 128 kts | 115° |
| 2026-04-24 21:30 | 18.01914 | -76.97720 | 3165 ft | 131 kts | 118° |
| 2026-04-24 21:31 | 18.01555 | -76.96842 | 3061 ft | 130 kts | 117° |
| 2026-04-24 21:31 | 18.01191 | -76.95986 | 2967 ft | 127 kts | 120° |
| 2026-04-24 21:31 | 18.00823 | -76.95149 | 2864 ft | 126 kts | 121° |
| 2026-04-24 21:31 | 18.00449 | -76.94315 | 2771 ft | 127 kts | 118° |
| 2026-04-24 21:32 | 18.00083 | -76.93494 | 2676 ft | 123 kts | 120° |
| 2026-04-24 21:32 | 17.99707 | -76.92670 | 2534 ft | 126 kts | 121° |
| 2026-04-24 21:32 | 17.99330 | -76.91832 | 2386 ft | 128 kts | 120° |
| 2026-04-24 21:32 | 17.98950 | -76.90980 | 2246 ft | 129 kts | 119° |
| 2026-04-24 21:33 | 17.98561 | -76.90107 | 2041 ft | 136 kts | 121° |
| 2026-04-24 21:33 | 17.98160 | -76.89208 | 1832 ft | 135 kts | 119° |
| 2026-04-24 21:33 | 17.97769 | -76.88340 | 1680 ft | 130 kts | 120° |
| 2026-04-24 21:33 | 17.97389 | -76.87495 | 1519 ft | 126 kts | 119° |
| 2026-04-24 21:34 | 17.97010 | -76.86649 | 1350 ft | 130 kts | 118° |
| 2026-04-24 21:34 | 17.96636 | -76.85815 | 1182 ft | 116 kts | 118° |
| 2026-04-24 21:34 | 17.96300 | -76.85066 | 1032 ft | 111 kts | 117° |
| 2026-04-24 21:34 | 17.95990 | -76.84366 | 905 ft | 102 kts | 119° |
| 2026-04-24 21:35 | 17.95699 | -76.83712 | 783 ft | 95 kts | 118° |
| 2026-04-24 21:35 | 17.95429 | -76.83116 | 676 ft | 87 kts | 117° |
| 2026-04-24 21:35 | 17.95165 | -76.82531 | 574 ft | 92 kts | 116° |
| 2026-04-24 21:35 | 17.94889 | -76.81910 | 454 ft | 96 kts | 117° |
| 2026-04-24 21:36 | 17.94605 | -76.81281 | 327 ft | 94 kts | 118° |
| 2026-04-24 21:36 | 17.94327 | -76.80665 | 210 ft | 94 kts | 116° |
| 2026-04-24 21:36 | 17.94062 | -76.80033 | 57 ft | 91 kts | 111° |
| 2026-04-24 21:36 | 17.93859 | -76.79521 | 7 ft | 55 kts | 113° |
| 2026-04-24 21:37 | 17.93770 | -76.79286 | 8 ft | 27 kts | 111° |
| 2026-04-24 21:37 | 17.93712 | -76.79129 | 10 ft | 20 kts | 111° |
| 2026-04-24 21:37 | 17.93670 | -76.79012 | 10 ft | 15 kts | 111° |
| 2026-04-24 21:37 | 17.93628 | -76.78899 | 9 ft | 19 kts | 112° |
| 2026-04-24 21:38 | 17.93575 | -76.78761 | 9 ft | 22 kts | 111° |
| 2026-04-24 21:38 | 17.93570 | -76.78640 | 10 ft | 14 kts | 4° |
| 2026-04-24 21:38 | 17.93671 | -76.78671 | 11 ft | 18 kts | 25° |
| 2026-04-24 21:38 | 17.93656 | -76.78553 | 11 ft | 19 kts | 111° |
| 2026-04-24 21:39 | 17.93612 | -76.78432 | 11 ft | 17 kts | 110° |
| 2026-04-24 21:39 | 17.93567 | -76.78324 | 12 ft | 15 kts | 112° |
| 2026-04-24 21:39 | 17.93529 | -76.78226 | 12 ft | 14 kts | 103° |
| 2026-04-24 21:39 | 17.93573 | -76.78163 | 12 ft | 6 kts | 28° |
| 2026-04-24 21:40 | 17.93574 | -76.78162 | 12 ft | 0 kts | 28° |